createdAt,value
2019-05-13T00:00:03.573Z,8.20
2019-05-13T00:02:34.515Z,8.20
2019-05-13T00:05:03.891Z,8.20
2019-05-13T00:07:34.092Z,8.20
2019-05-13T00:10:03.863Z,8.20
2019-05-13T00:12:31.295Z,8.20
2019-05-13T00:14:58.965Z,8.10
2019-05-13T00:17:26.731Z,8.20
2019-05-13T00:19:54.577Z,8.10
2019-05-13T00:22:23.399Z,8.10
2019-05-13T00:24:51.542Z,8.10
2019-05-13T00:27:19.347Z,8.10
2019-05-13T00:29:46.999Z,8.00
2019-05-13T00:32:16.274Z,8.00
2019-05-13T00:34:44.513Z,7.90
2019-05-13T00:37:14.666Z,7.90
2019-05-13T00:39:44.214Z,7.90
2019-05-13T00:42:14.139Z,7.90
2019-05-13T00:44:43.763Z,7.90
2019-05-13T00:47:13.157Z,7.80
2019-05-13T00:49:40.735Z,7.80
2019-05-13T00:52:08.376Z,7.80
2019-05-13T00:54:36.023Z,7.70
2019-05-13T00:57:04.307Z,7.60
2019-05-13T00:59:33.877Z,7.60
2019-05-13T01:02:03.684Z,7.60
2019-05-13T01:04:34.242Z,7.60
2019-05-13T01:07:04.137Z,7.50
2019-05-13T01:09:31.524Z,7.50
2019-05-13T01:11:59.235Z,7.50
2019-05-13T01:14:26.837Z,7.60
2019-05-13T01:16:54.537Z,7.50
2019-05-13T01:19:23.681Z,7.60
2019-05-13T01:21:53.849Z,7.50
2019-05-13T01:24:21.241Z,7.50
2019-05-13T01:26:48.939Z,7.40
2019-05-13T01:29:16.613Z,7.50
2019-05-13T01:31:44.246Z,7.40
2019-05-13T01:34:14.090Z,7.40
2019-05-13T01:36:44.472Z,7.30
2019-05-13T01:39:13.715Z,7.40
2019-05-13T01:41:43.652Z,7.40
2019-05-13T01:44:10.609Z,7.40
2019-05-13T01:46:38.275Z,7.40
2019-05-13T01:49:08.107Z,7.30
2019-05-13T01:51:35.768Z,7.30
2019-05-13T01:54:04.181Z,7.30
2019-05-13T01:56:33.982Z,7.30
2019-05-13T01:59:03.637Z,7.30
2019-05-13T02:01:33.474Z,7.20
2019-05-13T02:04:00.866Z,7.30
2019-05-13T02:06:30.595Z,7.20
2019-05-13T02:08:58.292Z,7.20
2019-05-13T02:11:26.102Z,7.30
2019-05-13T02:13:54.167Z,7.20
2019-05-13T02:16:24.266Z,7.20
2019-05-13T02:18:53.543Z,7.20
2019-05-13T02:21:21.107Z,7.20
2019-05-13T02:23:48.887Z,7.20
2019-05-13T02:26:16.675Z,7.10
2019-05-13T02:28:44.374Z,7.10
2019-05-13T02:31:21.325Z,7.10
2019-05-13T02:33:42.594Z,7.10
2019-05-13T02:36:13.246Z,7.10
2019-05-13T02:38:42.739Z,7.00
2019-05-13T02:41:13.369Z,7.00
2019-05-13T02:43:42.157Z,6.90
2019-05-13T02:46:12.928Z,6.90
2019-05-13T02:48:42.119Z,6.90
2019-05-13T02:51:12.171Z,6.90
2019-05-13T02:53:38.708Z,6.90
2019-05-13T02:56:06.383Z,6.80
2019-05-13T02:58:34.241Z,6.80
2019-05-13T03:01:03.160Z,6.70
2019-05-13T03:03:32.775Z,6.70
2019-05-13T03:06:04.173Z,6.70
2019-05-13T03:08:41.174Z,6.80
2019-05-13T03:11:03.029Z,6.80
2019-05-13T03:13:32.647Z,6.70
2019-05-13T03:16:23.153Z,6.70
2019-05-13T03:18:52.408Z,6.70
2019-05-13T03:21:23.237Z,6.70
2019-05-13T03:23:52.607Z,6.70
2019-05-13T03:26:19.520Z,6.70
2019-05-13T03:28:47.127Z,6.60
2019-05-13T03:31:17.415Z,6.60
2019-05-13T03:33:47.041Z,6.60
2019-05-13T03:36:17.436Z,6.60
2019-05-13T03:39:01.770Z,6.50
2019-05-13T03:41:18.019Z,6.50
2019-05-13T03:43:46.425Z,6.50
2019-05-13T03:46:14.076Z,6.50
2019-05-13T03:48:44.401Z,6.50
2019-05-13T03:51:13.377Z,6.50
2019-05-13T03:53:43.496Z,6.40
2019-05-13T03:56:13.354Z,6.30
2019-05-13T03:58:43.258Z,6.30
2019-05-13T04:01:12.970Z,6.40
2019-05-13T04:03:44.052Z,6.30
2019-05-13T04:06:13.624Z,6.20
2019-05-13T04:08:42.986Z,6.10
2019-05-13T04:11:12.582Z,6.10
2019-05-13T04:13:42.878Z,6.00
2019-05-13T04:16:12.840Z,6.00
2019-05-13T04:18:42.620Z,6.00
2019-05-13T04:21:13.041Z,5.90
2019-05-13T04:23:42.628Z,6.00
2019-05-13T04:26:14.239Z,6.10
2019-05-13T04:28:43.391Z,6.00
2019-05-13T04:31:13.694Z,6.10
2019-05-13T04:33:42.676Z,6.10
2019-05-13T04:36:12.878Z,6.10
2019-05-13T04:38:43.694Z,6.10
2019-05-13T04:41:11.980Z,6.10
2019-05-13T04:43:43.769Z,6.10
2019-05-13T04:46:13.616Z,6.10
2019-05-13T04:48:43.915Z,6.10
2019-05-13T04:51:13.680Z,6.10
2019-05-13T04:53:42.328Z,6.10
2019-05-13T04:56:13.647Z,6.20
2019-05-13T04:58:42.826Z,6.20
2019-05-13T05:01:52.866Z,6.30
2019-05-13T05:04:33.983Z,6.30
2019-05-13T05:07:54.330Z,6.40
2019-05-13T05:11:02.521Z,6.40
2019-05-13T05:14:13.848Z,6.40
2019-05-13T05:17:13.819Z,6.40
2019-05-13T05:20:03.831Z,6.50
2019-05-13T05:23:06.954Z,6.50
2019-05-13T05:26:01.149Z,6.60
2019-05-13T05:28:41.617Z,6.60
2019-05-13T05:31:34.692Z,6.70
2019-05-13T05:34:27.748Z,6.80
2019-05-13T05:37:23.376Z,6.80
2019-05-13T05:39:54.080Z,6.90
2019-05-13T05:42:24.309Z,6.90
2019-05-13T05:44:53.816Z,7.00
2019-05-13T05:47:26.243Z,7.10
2019-05-13T05:49:55.578Z,7.10
2019-05-13T05:52:27.846Z,7.10
2019-05-13T05:54:58.544Z,7.20
2019-05-13T05:57:30.806Z,7.30
2019-05-13T06:00:02.290Z,7.40
2019-05-13T06:02:32.265Z,7.40
2019-05-13T06:05:02.707Z,7.50
2019-05-13T06:07:32.415Z,7.50
2019-05-13T06:10:02.236Z,7.60
2019-05-13T06:12:31.481Z,7.70
2019-05-13T06:15:02.417Z,7.70
2019-05-13T06:17:31.839Z,7.70
2019-05-13T06:20:02.928Z,7.80
2019-05-13T06:22:31.917Z,7.90
2019-05-13T06:25:01.266Z,8.00
2019-05-13T06:27:29.033Z,8.10
2019-05-13T06:29:56.815Z,8.20
2019-05-13T06:32:26.960Z,8.20
2019-05-13T06:34:54.718Z,8.30
2019-05-13T06:37:22.363Z,8.40
2019-05-13T06:39:51.248Z,8.50
2019-05-13T06:42:22.205Z,8.60
2019-05-13T06:44:51.414Z,8.70
2019-05-13T06:47:21.746Z,8.70
2019-05-13T06:49:48.851Z,8.80
2019-05-13T06:52:16.545Z,8.90
2019-05-13T06:54:44.178Z,9.00
2019-05-13T06:57:13.434Z,9.00
2019-05-13T06:59:42.057Z,9.00
2019-05-13T07:02:12.541Z,9.10
2019-05-13T07:04:41.526Z,9.20
2019-05-13T07:07:14.070Z,9.30
2019-05-13T07:09:39.092Z,9.40
2019-05-13T07:12:06.872Z,9.50
2019-05-13T07:14:35.002Z,9.60
2019-05-13T07:17:02.686Z,9.60
2019-05-13T07:19:32.334Z,9.70
2019-05-13T07:22:02.559Z,9.80
2019-05-13T07:24:32.208Z,9.90
2019-05-13T07:27:01.896Z,9.90
2019-05-13T07:29:32.193Z,9.90
2019-05-13T07:32:01.775Z,10.00
2019-05-13T07:34:33.618Z,10.10
2019-05-13T07:37:02.147Z,10.20
2019-05-13T07:39:32.737Z,10.20
2019-05-13T07:42:02.713Z,10.20
2019-05-13T07:44:32.172Z,10.20
2019-05-13T07:46:59.461Z,10.30
2019-05-13T07:49:31.405Z,10.30
2019-05-13T07:52:01.324Z,10.30
2019-05-13T07:54:28.542Z,10.40
2019-05-13T07:56:56.268Z,10.40
2019-05-13T07:59:24.027Z,10.50
2019-05-13T08:01:52.173Z,10.50
2019-05-13T08:04:23.636Z,10.70
2019-05-13T08:06:52.409Z,10.90
2019-05-13T08:09:21.606Z,10.90
2019-05-13T08:12:04.472Z,11.00
2019-05-13T08:14:21.765Z,11.10
2019-05-13T08:16:51.766Z,11.20
2019-05-13T08:19:21.818Z,11.30
2019-05-13T08:21:51.392Z,11.40
2019-05-13T08:24:22.438Z,11.40
2019-05-13T08:26:50.720Z,11.40
2019-05-13T08:29:18.437Z,11.40
2019-05-13T08:31:48.781Z,11.30
2019-05-13T08:34:16.539Z,11.40
2019-05-13T08:36:44.512Z,11.50
2019-05-13T08:39:12.927Z,11.60
2019-05-13T08:41:42.325Z,11.70
2019-05-13T08:44:12.297Z,11.90
2019-05-13T08:46:41.379Z,11.90
2019-05-13T08:49:26.782Z,12.10
2019-05-13T08:51:57.246Z,12.10
2019-05-13T08:54:24.883Z,12.10
2019-05-13T08:56:55.663Z,12.20
2019-05-13T08:59:23.306Z,12.20
2019-05-13T09:01:52.008Z,12.20
2019-05-13T09:04:22.198Z,12.30
2019-05-13T09:06:51.779Z,12.30
2019-05-13T09:09:21.854Z,12.40
2019-05-13T09:11:51.432Z,12.50
2019-05-13T09:14:32.760Z,12.50
2019-05-13T09:17:01.763Z,12.50
2019-05-13T09:19:32.193Z,12.60
2019-05-13T09:22:02.805Z,12.60
2019-05-13T09:24:36.981Z,12.80
2019-05-13T09:27:01.710Z,12.90
2019-05-13T09:29:28.587Z,12.90
2019-05-13T09:31:56.332Z,12.90
2019-05-13T09:34:25.231Z,13.00
2019-05-13T09:36:53.123Z,13.00
2019-05-13T09:39:21.647Z,13.10
2019-05-13T09:41:52.170Z,13.10
2019-05-13T09:44:22.731Z,13.10
2019-05-13T09:46:51.655Z,13.10
2019-05-13T09:49:23.337Z,13.20
2019-05-13T09:51:49.159Z,13.30
2019-05-13T09:54:16.940Z,13.50
2019-05-13T09:56:44.890Z,13.70
2019-05-13T09:59:12.622Z,13.90
2019-05-13T10:01:42.440Z,14.00
2019-05-13T10:04:11.911Z,14.10
2019-05-13T10:06:42.081Z,14.20
2019-05-13T10:09:09.337Z,14.20
2019-05-13T10:11:37.007Z,14.10
2019-05-13T10:14:04.872Z,14.10
2019-05-13T10:16:32.629Z,14.20
2019-05-13T10:19:01.600Z,14.30
2019-05-13T10:21:32.277Z,14.50
2019-05-13T10:23:59.482Z,14.50
2019-05-13T10:26:28.876Z,14.60
2019-05-13T10:28:56.590Z,14.70
2019-05-13T10:31:24.294Z,14.90
2019-05-13T10:33:51.959Z,15.00
2019-05-13T10:36:22.280Z,15.00
2019-05-13T10:38:52.180Z,15.10
2019-05-13T10:41:22.330Z,15.30
2019-05-13T10:43:52.042Z,15.30
2019-05-13T10:46:22.170Z,15.40
2019-05-13T10:48:52.713Z,15.40
2019-05-13T10:51:22.414Z,15.60
2019-05-13T10:53:49.424Z,15.80
2019-05-13T10:56:17.184Z,15.80
2019-05-13T10:58:45.267Z,15.90
2019-05-13T11:01:13.056Z,15.90
2019-05-13T11:03:42.748Z,15.90
2019-05-13T11:06:11.716Z,16.10
2019-05-13T11:08:42.218Z,16.20
2019-05-13T11:11:09.160Z,16.10
2019-05-13T11:14:23.679Z,16.00
2019-05-13T11:16:54.588Z,16.70
2019-05-13T11:19:23.499Z,18.40
2019-05-13T11:21:52.399Z,19.00
2019-05-13T11:24:22.116Z,19.70
2019-05-13T11:26:52.273Z,19.50
2019-05-13T11:29:19.607Z,19.20
2019-05-13T11:31:47.475Z,19.00
2019-05-13T11:34:15.456Z,19.50
2019-05-13T11:36:43.746Z,20.50
2019-05-13T11:39:13.019Z,21.20
2019-05-13T11:41:42.701Z,21.50
2019-05-13T11:44:16.073Z,21.60
2019-05-13T11:46:42.666Z,21.30
2019-05-13T11:49:11.774Z,20.60
2019-05-13T11:51:41.844Z,20.00
2019-05-13T11:54:09.538Z,19.90
2019-05-13T11:56:37.385Z,19.80
2019-05-13T11:59:05.663Z,20.10
2019-05-13T12:01:33.734Z,20.50
2019-05-13T12:04:03.082Z,20.50
2019-05-13T12:06:33.882Z,20.00
2019-05-13T12:09:03.105Z,19.50
2019-05-13T12:11:33.264Z,19.20
2019-05-13T12:14:00.944Z,19.20
2019-05-13T12:16:28.656Z,19.20
2019-05-13T12:18:56.397Z,19.00
2019-05-13T12:21:25.275Z,18.30
2019-05-13T12:23:53.410Z,18.10
2019-05-13T12:26:23.817Z,18.00
2019-05-13T12:28:53.555Z,18.60
2019-05-13T12:31:22.430Z,19.10
2019-05-13T12:33:52.300Z,19.10
2019-05-13T12:36:23.628Z,19.10
2019-05-13T12:38:52.949Z,19.30
2019-05-13T12:41:19.277Z,19.30
2019-05-13T12:43:47.401Z,19.60
2019-05-13T12:46:15.368Z,19.50
2019-05-13T12:48:43.152Z,19.60
2019-05-13T12:51:13.332Z,20.50
2019-05-13T12:53:43.457Z,21.40
2019-05-13T12:56:12.585Z,21.80
2019-05-13T12:58:40.357Z,21.40
2019-05-13T13:01:08.020Z,21.30
2019-05-13T13:03:35.739Z,21.30
2019-05-13T13:06:25.119Z,21.10
2019-05-13T13:08:43.526Z,20.60
2019-05-13T13:11:05.626Z,20.10
2019-05-13T13:13:57.506Z,20.00
2019-05-13T13:16:03.743Z,20.90
2019-05-13T13:18:31.681Z,21.20
2019-05-13T13:21:05.171Z,21.30
2019-05-13T13:23:34.214Z,21.20
2019-05-13T13:26:03.040Z,20.80
2019-05-13T13:28:29.444Z,20.20
2019-05-13T13:30:57.286Z,19.90
2019-05-13T13:33:24.972Z,20.00
2019-05-13T13:35:59.659Z,20.00
2019-05-13T13:38:25.091Z,19.90
2019-05-13T13:40:53.775Z,19.60
2019-05-13T13:43:24.771Z,19.60
2019-05-13T13:46:20.837Z,19.50
2019-05-13T13:48:25.577Z,19.80
2019-05-13T13:50:55.707Z,20.20
2019-05-13T13:53:25.224Z,20.90
2019-05-13T13:55:55.490Z,20.80
2019-05-13T13:58:24.658Z,20.80
2019-05-13T14:01:01.852Z,21.00
2019-05-13T14:03:19.634Z,21.00
2019-05-13T14:05:47.742Z,20.90
2019-05-13T14:08:15.631Z,20.60
2019-05-13T14:10:43.407Z,20.60
2019-05-13T14:13:12.493Z,20.40
2019-05-13T14:15:41.823Z,20.50
2019-05-13T14:18:11.426Z,21.20
2019-05-13T14:20:42.626Z,21.90
2019-05-13T14:23:09.274Z,22.00
2019-05-13T14:25:37.090Z,22.00
2019-05-13T14:28:07.047Z,21.70
2019-05-13T14:30:35.134Z,21.60
2019-05-13T14:33:02.814Z,21.50
2019-05-13T14:35:31.739Z,21.50
2019-05-13T14:38:02.309Z,21.90
2019-05-13T14:40:31.828Z,22.70
2019-05-13T14:43:02.903Z,22.60
2019-05-13T14:45:31.807Z,23.10
2019-05-13T14:47:59.666Z,23.50
2019-05-13T14:50:28.608Z,23.10
2019-05-13T14:52:56.276Z,22.50
2019-05-13T14:55:23.991Z,22.60
2019-05-13T14:57:52.546Z,22.80
2019-05-13T15:00:22.241Z,22.90
2019-05-13T15:02:51.758Z,23.20
2019-05-13T15:05:21.998Z,23.70
2019-05-13T15:07:52.164Z,23.60
2019-05-13T15:10:21.944Z,23.70
2019-05-13T15:12:52.350Z,23.40
2019-05-13T15:15:22.244Z,23.40
2019-05-13T15:17:51.739Z,23.60
2019-05-13T15:20:21.764Z,23.00
2019-05-13T15:22:51.786Z,22.60
2019-05-13T15:25:19.186Z,22.40
2019-05-13T15:27:46.894Z,21.90
2019-05-13T15:30:18.002Z,21.10
2019-05-13T15:32:44.599Z,20.50
2019-05-13T15:35:13.354Z,19.80
2019-05-13T15:37:41.836Z,19.40
2019-05-13T15:40:12.233Z,19.30
2019-05-13T15:42:39.907Z,19.10
2019-05-13T15:45:07.963Z,18.90
2019-05-13T15:47:35.757Z,18.60
2019-05-13T15:50:03.647Z,18.40
2019-05-13T15:52:31.759Z,18.50
2019-05-13T15:55:01.433Z,18.20
2019-05-13T15:57:29.839Z,18.10
2019-05-13T15:59:58.757Z,18.10
2019-05-13T16:02:27.783Z,18.10
2019-05-13T16:05:01.192Z,18.20
2019-05-13T16:07:25.151Z,18.10
2019-05-13T16:09:52.843Z,18.10
2019-05-13T16:12:21.321Z,18.10
2019-05-13T16:14:49.387Z,18.10
2019-05-13T16:17:17.053Z,18.00
2019-05-13T16:19:44.852Z,18.10
2019-05-13T16:22:12.971Z,18.10
2019-05-13T16:24:41.495Z,18.20
2019-05-13T16:27:11.594Z,18.30
2019-05-13T16:29:39.059Z,18.30
2019-05-13T16:32:06.726Z,18.40
2019-05-13T16:34:34.510Z,18.40
2019-05-13T16:37:02.752Z,18.40
2019-05-13T16:39:31.837Z,18.30
2019-05-13T16:41:59.768Z,18.40
2019-05-13T16:44:27.470Z,18.60
2019-05-13T16:46:55.098Z,18.80
2019-05-13T16:49:22.736Z,18.80
2019-05-13T16:51:51.744Z,18.90
2019-05-13T16:54:21.793Z,18.80
2019-05-13T16:56:51.655Z,18.60
2019-05-13T16:59:21.018Z,18.70
2019-05-13T17:01:51.083Z,18.40
2019-05-13T17:04:18.548Z,18.20
2019-05-13T17:06:46.274Z,17.90
2019-05-13T17:09:15.330Z,18.10
2019-05-13T17:11:42.887Z,17.90
2019-05-13T17:14:10.736Z,17.80
2019-05-13T17:16:41.188Z,17.60
2019-05-13T17:19:08.908Z,17.50
2019-05-13T17:21:36.625Z,17.50
2019-05-13T17:24:04.335Z,17.40
2019-05-13T17:26:32.668Z,17.30
2019-05-13T17:29:01.424Z,17.20
2019-05-13T17:31:32.388Z,17.00
2019-05-13T17:34:01.475Z,16.90
2019-05-13T17:36:29.108Z,16.80
2019-05-13T17:38:56.978Z,16.70
2019-05-13T17:41:32.107Z,16.60
2019-05-13T17:44:02.230Z,16.40
2019-05-13T17:46:32.459Z,16.30
2019-05-13T17:49:01.021Z,16.20
2019-05-13T17:51:28.873Z,16.10
2019-05-13T17:53:56.647Z,16.10
2019-05-13T17:56:24.678Z,16.00
2019-05-13T17:58:52.395Z,16.00
2019-05-13T18:01:21.238Z,16.00
2019-05-13T18:03:51.571Z,15.90
2019-05-13T18:06:20.972Z,15.80
2019-05-13T18:08:51.626Z,15.80
2019-05-13T18:11:19.141Z,15.70
2019-05-13T18:13:46.785Z,15.60
2019-05-13T18:16:14.423Z,15.50
2019-05-13T18:18:47.343Z,15.60
2019-05-13T18:21:12.322Z,15.50
2019-05-13T18:23:41.432Z,15.40
2019-05-13T18:26:09.472Z,15.30
2019-05-13T18:28:38.239Z,15.30
2019-05-13T18:31:05.896Z,15.20
2019-05-13T18:33:33.611Z,15.10
2019-05-13T18:36:01.857Z,15.00
2019-05-13T18:38:31.277Z,15.00
2019-05-13T18:41:01.478Z,14.90
2019-05-13T18:43:29.067Z,14.90
2019-05-13T18:45:56.720Z,14.80
2019-05-13T18:48:24.522Z,14.80
2019-05-13T18:50:52.543Z,14.70
2019-05-13T18:53:21.492Z,14.70
2019-05-13T18:55:52.169Z,14.60
2019-05-13T18:58:22.240Z,14.60
2019-05-13T19:00:52.358Z,14.50
2019-05-13T19:03:21.757Z,14.40
2019-05-13T19:05:50.481Z,14.30
2019-05-13T19:08:21.264Z,14.30
2019-05-13T19:10:49.002Z,14.20
2019-05-13T19:13:16.698Z,14.10
2019-05-13T19:15:44.473Z,14.10
2019-05-13T19:18:12.431Z,14.00
2019-05-13T19:20:41.931Z,13.90
2019-05-13T19:23:11.812Z,13.90
2019-05-13T19:25:43.317Z,13.80
2019-05-13T19:28:12.398Z,13.70
2019-05-13T19:30:42.434Z,13.70
2019-05-13T19:33:12.142Z,13.60
2019-05-13T19:35:39.750Z,13.50
2019-05-13T19:38:07.426Z,13.40
2019-05-13T19:40:35.126Z,13.30
2019-05-13T19:43:03.151Z,13.30
2019-05-13T19:45:32.267Z,13.20
2019-05-13T19:48:01.296Z,13.20
2019-05-13T19:50:31.433Z,13.10
2019-05-13T19:53:01.166Z,13.10
2019-05-13T19:55:28.563Z,13.10
2019-05-13T19:57:56.210Z,13.00
2019-05-13T20:00:23.982Z,13.00
2019-05-13T20:02:51.807Z,12.90
2019-05-13T20:05:21.100Z,12.90
2019-05-13T20:07:49.524Z,12.80
2019-05-13T20:10:17.487Z,12.80
2019-05-13T20:12:45.280Z,12.70
2019-05-13T20:15:13.345Z,12.70
2019-05-13T20:17:41.579Z,12.70
2019-05-13T20:20:09.638Z,12.60
2019-05-13T20:22:37.657Z,12.60
2019-05-13T20:25:06.726Z,12.60
2019-05-13T20:27:34.388Z,12.50
2019-05-13T20:30:02.196Z,12.40
2019-05-13T20:32:30.007Z,12.40
2019-05-13T20:34:57.731Z,12.50
2019-05-13T20:37:25.813Z,12.40
2019-05-13T20:39:53.613Z,12.40
2019-05-13T20:42:23.383Z,12.40
2019-05-13T20:44:52.303Z,12.30
2019-05-13T20:47:21.341Z,12.30
2019-05-13T20:50:00.899Z,12.30
2019-05-13T20:52:18.836Z,12.30
2019-05-13T20:54:46.496Z,12.30
2019-05-13T20:57:14.399Z,12.20
2019-05-13T20:59:42.286Z,12.20
2019-05-13T21:02:12.197Z,12.20
2019-05-13T21:04:39.604Z,12.10
2019-05-13T21:07:07.237Z,12.20
2019-05-13T21:09:35.017Z,12.10
2019-05-13T21:12:02.824Z,12.00
2019-05-13T21:14:32.675Z,12.10
2019-05-13T21:17:01.376Z,12.10
2019-05-13T21:19:38.719Z,12.00
2019-05-13T21:21:59.190Z,11.90
2019-05-13T21:24:27.337Z,11.80
2019-05-13T21:26:54.943Z,11.70
2019-05-13T21:29:22.625Z,11.60
2019-05-13T21:31:50.232Z,11.60
2019-05-13T21:34:17.991Z,11.50
2019-05-13T21:36:45.642Z,11.50
2019-05-13T21:39:13.311Z,11.50
2019-05-13T21:41:41.429Z,11.50
2019-05-13T21:44:11.956Z,11.50
2019-05-13T21:46:41.087Z,11.40
2019-05-13T21:49:11.600Z,11.40
2019-05-13T21:51:38.691Z,11.30
2019-05-13T21:54:06.541Z,11.30
2019-05-13T21:56:34.211Z,11.30
2019-05-13T21:59:01.921Z,11.20
2019-05-13T22:01:31.491Z,11.20
2019-05-13T22:04:01.570Z,11.10
2019-05-13T22:06:28.550Z,11.10
2019-05-13T22:08:56.269Z,11.00
2019-05-13T22:11:24.110Z,11.00
2019-05-13T22:13:51.845Z,10.90
2019-05-13T22:16:21.475Z,10.90
2019-05-13T22:18:49.205Z,10.90
2019-05-13T22:21:16.828Z,10.80
2019-05-13T22:23:44.531Z,10.80
2019-05-13T22:26:12.290Z,10.70
2019-05-13T22:28:41.754Z,10.70
2019-05-13T22:31:11.519Z,10.70
2019-05-13T22:33:41.142Z,10.70
2019-05-13T22:36:11.823Z,10.60
2019-05-13T22:38:39.430Z,10.60
2019-05-13T22:41:07.283Z,10.60
2019-05-13T22:43:34.945Z,10.50
2019-05-13T22:46:02.696Z,10.50
2019-05-13T22:48:31.738Z,10.50
2019-05-13T22:51:01.311Z,10.40
2019-05-13T22:53:31.605Z,10.40
2019-05-13T22:55:58.963Z,10.40
2019-05-13T22:58:26.644Z,10.40
2019-05-13T23:00:54.507Z,10.30
2019-05-13T23:03:22.178Z,10.30
2019-05-13T23:05:52.054Z,10.20
2019-05-13T23:08:21.743Z,10.30
2019-05-13T23:10:51.444Z,10.20
2019-05-13T23:13:19.379Z,10.20
2019-05-13T23:15:47.029Z,10.20
2019-05-13T23:18:14.740Z,10.20
2019-05-13T23:20:42.386Z,10.10
2019-05-13T23:23:11.772Z,10.10
2019-05-13T23:25:40.089Z,10.00
2019-05-13T23:28:11.241Z,10.00
2019-05-13T23:30:41.728Z,9.90
2019-05-13T23:33:11.606Z,9.80
2019-05-13T23:35:41.551Z,9.80
2019-05-13T23:38:08.883Z,9.80
2019-05-13T23:40:36.493Z,9.70
2019-05-13T23:43:04.275Z,9.70
2019-05-13T23:45:34.908Z,9.70
2019-05-13T23:48:02.708Z,9.60
2019-05-13T23:50:33.320Z,9.60
2019-05-13T23:53:00.969Z,9.60
2019-05-13T23:55:28.797Z,9.50
2019-05-13T23:57:56.554Z,9.40
